createdAt,value
2023-07-28T00:01:10.080Z,100044.38
2023-07-28T00:03:38.415Z,100039.50
2023-07-28T00:06:06.697Z,100047.84
2023-07-28T00:08:36.323Z,100033.66
2023-07-28T00:11:04.607Z,100043.63
2023-07-28T00:13:33.122Z,100044.75
2023-07-28T00:16:01.303Z,100047.06
2023-07-28T00:18:29.507Z,100036.69
2023-07-28T00:20:57.714Z,100041.63
2023-07-28T00:23:26.426Z,100042.47
2023-07-28T00:25:56.247Z,100032.91
2023-07-28T00:28:24.458Z,100052.38
2023-07-28T00:30:52.762Z,100040.50
2023-07-28T00:33:21.278Z,100041.25
2023-07-28T00:35:49.476Z,100047.38
2023-07-28T00:38:17.685Z,100039.34
2023-07-28T00:40:45.851Z,100019.78
2023-07-28T00:43:15.528Z,100022.03
2023-07-28T00:45:43.870Z,100035.44
2023-07-28T00:48:14.794Z,100022.41
2023-07-28T00:50:44.333Z,100035.06
2023-07-28T00:53:12.752Z,100035.44
2023-07-28T00:55:41.145Z,100043.19
2023-07-28T00:58:10.573Z,100025.94
2023-07-28T01:00:40.278Z,100021.38
2023-07-28T01:03:08.859Z,100016.44
2023-07-28T01:05:46.017Z,100008.09
2023-07-28T01:08:22.412Z,100008.47
2023-07-28T01:10:51.009Z,100016.50
2023-07-28T01:13:19.163Z,100008.47
2023-07-28T01:15:49.765Z,100011.22
2023-07-28T01:18:18.151Z,100004.75
2023-07-28T01:20:49.018Z,100013.19
2023-07-28T01:23:21.834Z,100020.53
2023-07-28T01:25:57.212Z,100001.03
2023-07-28T01:28:27.473Z,100013.41
2023-07-28T01:34:49.725Z,100002.78
2023-07-28T01:37:18.040Z,100002.44
2023-07-28T01:39:46.293Z,100001.25
2023-07-28T01:42:14.437Z,99999.69
2023-07-28T01:44:44.150Z,100000.88
2023-07-28T01:47:12.459Z,99994.31
2023-07-28T01:49:40.594Z,100001.19
2023-07-28T01:52:09.253Z,100009.25
2023-07-28T01:54:37.442Z,99998.97
2023-07-28T01:57:06.159Z,99992.06
2023-07-28T01:59:35.653Z,99984.00
2023-07-28T02:02:05.376Z,99990.84
2023-07-28T02:04:33.611Z,100000.44
2023-07-28T02:07:01.921Z,99988.94
2023-07-28T02:09:30.206Z,99990.53
2023-07-28T02:11:58.561Z,99983.25
2023-07-28T02:14:26.903Z,99992.09
2023-07-28T02:16:55.169Z,99996.72
2023-07-28T02:19:24.938Z,99981.50
2023-07-28T02:21:53.145Z,99981.06
2023-07-28T02:24:21.439Z,99983.75
2023-07-28T02:26:49.690Z,99982.19
2023-07-28T02:29:18.032Z,99982.56
2023-07-28T02:31:46.331Z,99978.00
2023-07-28T02:34:14.645Z,99986.03
2023-07-28T02:36:44.288Z,99985.28
2023-07-28T02:39:12.508Z,99987.53
2023-07-28T02:41:40.858Z,99988.41
2023-07-28T02:44:09.395Z,99997.19
2023-07-28T02:46:38.792Z,99983.06
2023-07-28T02:49:07.811Z,99997.19
2023-07-28T02:51:37.236Z,99996.00
2023-07-28T02:54:07.537Z,99996.81
2023-07-28T02:56:38.895Z,99992.91
2023-07-28T02:59:07.902Z,99983.00
2023-07-28T03:01:36.718Z,99972.59
2023-07-28T03:04:05.949Z,99973.47
2023-07-28T03:06:34.992Z,99966.56
2023-07-28T03:09:03.660Z,99961.16
2023-07-28T03:11:35.180Z,99962.75
2023-07-28T03:14:05.452Z,99971.91
2023-07-28T03:16:33.920Z,99974.94
2023-07-28T03:19:02.379Z,99974.22
2023-07-28T03:21:32.603Z,99964.66
2023-07-28T03:24:01.814Z,99963.50
2023-07-28T03:26:30.129Z,99964.66
2023-07-28T03:29:00.458Z,99974.50
2023-07-28T03:31:34.243Z,99977.50
2023-07-28T03:34:05.863Z,99979.00
2023-07-28T03:36:34.322Z,99980.63
2023-07-28T03:39:03.727Z,99977.06
2023-07-28T03:41:55.599Z,99985.47
2023-07-28T03:44:27.027Z,99995.84
2023-07-28T03:47:03.996Z,99990.53
2023-07-28T03:49:37.389Z,99988.66
2023-07-28T03:52:13.972Z,99984.88
2023-07-28T03:54:53.383Z,99995.66
2023-07-28T03:57:21.900Z,99988.34
2023-07-28T03:59:51.413Z,99994.81
2023-07-28T04:02:19.628Z,99988.34
2023-07-28T04:04:47.822Z,100000.22
2023-07-28T04:07:16.220Z,100002.44
2023-07-28T04:09:44.510Z,99999.31
2023-07-28T04:12:12.684Z,99988.59
2023-07-28T04:14:42.029Z,99977.06
2023-07-28T04:17:12.742Z,99991.97
2023-07-28T04:19:40.996Z,100001.16
2023-07-28T04:22:09.742Z,100000.44
2023-07-28T04:24:37.832Z,99987.78
2023-07-28T04:27:06.670Z,99980.19
2023-07-28T04:29:36.022Z,99978.66
2023-07-28T04:32:04.169Z,99997.75
2023-07-28T04:34:35.198Z,99986.16
2023-07-28T04:37:03.608Z,99999.84
2023-07-28T04:39:31.823Z,99985.66
2023-07-28T04:42:00.225Z,99996.66
2023-07-28T04:44:28.528Z,100002.66
2023-07-28T04:46:56.798Z,99995.66
2023-07-28T04:49:25.085Z,100000.13
2023-07-28T04:51:55.483Z,100005.75
2023-07-28T04:54:23.656Z,99984.09
2023-07-28T04:56:54.200Z,99983.41
2023-07-28T04:59:22.516Z,99980.41
2023-07-28T05:01:50.685Z,99983.53
2023-07-28T05:04:19.162Z,99992.03
2023-07-28T05:06:56.858Z,99991.72
2023-07-28T05:09:29.340Z,99994.19
2023-07-28T05:11:57.807Z,100003.81
2023-07-28T05:14:26.022Z,99999.28
2023-07-28T05:16:54.346Z,99998.63
2023-07-28T05:19:22.542Z,99995.16
2023-07-28T05:22:24.617Z,99996.00
2023-07-28T05:25:02.049Z,99984.84
2023-07-28T05:27:30.328Z,99994.41
2023-07-28T05:29:58.471Z,100008.34
2023-07-28T05:32:26.800Z,100007.75
2023-07-28T05:34:55.246Z,100018.25
2023-07-28T05:37:28.197Z,99997.25
2023-07-28T05:39:57.941Z,100016.94
2023-07-28T05:42:26.442Z,100028.00
2023-07-28T05:44:58.666Z,100026.47
2023-07-28T05:48:22.190Z,100029.06
2023-07-28T05:50:53.860Z,100015.91
2023-07-28T05:53:48.033Z,100047.47
2023-07-28T05:56:17.653Z,100039.84
2023-07-28T05:58:46.369Z,100052.34
2023-07-28T06:01:17.606Z,100052.53
2023-07-28T06:03:46.378Z,100045.97
2023-07-28T06:06:25.425Z,100061.53
2023-07-28T06:12:24.427Z,100045.25
2023-07-28T06:14:52.903Z,100050.69
2023-07-28T06:17:21.453Z,100029.13
2023-07-28T06:19:49.807Z,100044.34
2023-07-28T06:22:18.066Z,100038.78
2023-07-28T06:24:46.607Z,100033.44
2023-07-28T06:27:31.090Z,100026.16
2023-07-28T06:30:01.020Z,100018.31
2023-07-28T06:32:30.955Z,100048.72
2023-07-28T06:35:00.649Z,100063.75
2023-07-28T06:37:29.049Z,100053.56
2023-07-28T06:39:57.407Z,100062.72
2023-07-28T06:42:26.040Z,100048.75
2023-07-28T06:44:58.083Z,100068.16
2023-07-28T06:47:26.513Z,100077.06
2023-07-28T06:49:54.823Z,100064.41
2023-07-28T06:52:23.488Z,100063.50
2023-07-28T06:54:51.727Z,100050.66
2023-07-28T06:57:20.024Z,100043.09
2023-07-28T06:59:48.460Z,100044.50
2023-07-28T07:02:19.464Z,100035.25
2023-07-28T07:04:47.853Z,100032.69
2023-07-28T07:07:19.135Z,100020.50
2023-07-28T07:09:47.580Z,100025.22
2023-07-28T07:12:16.978Z,100025.13
2023-07-28T07:14:46.150Z,100020.69
2023-07-28T07:17:14.514Z,100027.91
2023-07-28T07:19:46.951Z,100020.91
2023-07-28T07:22:23.716Z,100024.97
2023-07-28T07:28:59.818Z,100030.09
2023-07-28T07:31:31.366Z,100025.22
2023-07-28T07:34:01.070Z,100031.50
2023-07-28T07:36:30.899Z,100035.63
2023-07-28T07:39:03.813Z,100035.81
2023-07-28T07:41:36.554Z,100031.41
2023-07-28T07:44:05.475Z,100037.53
2023-07-28T07:46:33.874Z,100031.50
2023-07-28T07:49:02.056Z,100034.34
2023-07-28T07:51:31.730Z,100023.47
2023-07-28T07:54:05.429Z,100031.91
2023-07-28T07:56:33.781Z,100043.53
2023-07-28T07:59:04.970Z,100036.75
2023-07-28T08:01:33.483Z,100025.09
2023-07-28T08:04:02.132Z,100020.59
2023-07-28T08:06:34.880Z,100025.00
2023-07-28T08:09:19.873Z,100041.53
2023-07-28T08:11:52.792Z,100025.38
2023-07-28T08:14:24.886Z,100028.50
2023-07-28T08:16:53.246Z,100027.47
2023-07-28T08:19:21.675Z,100051.19
2023-07-28T08:21:52.300Z,100031.16
2023-07-28T08:24:29.596Z,100030.03
2023-07-28T08:26:59.748Z,100027.16
2023-07-28T08:29:28.204Z,100026.91
2023-07-28T08:31:57.160Z,100033.44
2023-07-28T08:34:27.139Z,100029.44
2023-07-28T08:37:01.204Z,100027.41
2023-07-28T08:39:29.577Z,100016.00
2023-07-28T08:42:01.921Z,100015.78
2023-07-28T08:44:32.628Z,100014.50
2023-07-28T08:47:02.094Z,100030.44
2023-07-28T08:49:32.605Z,100020.50
2023-07-28T08:52:04.677Z,100021.78
2023-07-28T08:54:33.114Z,100015.88
2023-07-28T08:57:01.294Z,100024.16
2023-07-28T08:59:31.125Z,100026.44
2023-07-28T09:02:00.778Z,100033.16
2023-07-28T09:04:30.870Z,100010.53
2023-07-28T09:06:59.168Z,100019.63
2023-07-28T09:09:35.045Z,100020.03
2023-07-28T09:12:03.289Z,100025.03
2023-07-28T09:14:32.568Z,100019.44
2023-07-28T09:17:09.183Z,100010.72
2023-07-28T09:19:37.570Z,100031.25
2023-07-28T09:22:07.757Z,100034.34
2023-07-28T09:24:37.821Z,100025.94
2023-07-28T09:27:06.232Z,100017.69
2023-07-28T09:29:34.593Z,100019.66
2023-07-28T09:32:06.895Z,100022.34
2023-07-28T09:34:35.205Z,100023.06
2023-07-28T09:37:03.457Z,100014.84
2023-07-28T09:42:16.615Z,100006.00
2023-07-28T09:44:44.891Z,100021.38
2023-07-28T09:47:13.234Z,100011.53
2023-07-28T09:49:54.586Z,100024.41
2023-07-28T09:52:33.194Z,100022.56
2023-07-28T09:55:05.157Z,100008.22
2023-07-28T09:57:40.908Z,100013.19
2023-07-28T10:00:13.898Z,100003.13
2023-07-28T10:02:43.021Z,100019.28
2023-07-28T10:05:11.831Z,100010.06
2023-07-28T10:07:43.965Z,99999.00
2023-07-28T10:10:15.031Z,100016.94
2023-07-28T10:12:47.909Z,100003.19
2023-07-28T10:15:18.034Z,100010.97
2023-07-28T10:17:49.046Z,100017.25
2023-07-28T10:20:35.879Z,100031.03
2023-07-28T10:23:05.920Z,100011.00
2023-07-28T10:25:36.579Z,100021.19
2023-07-28T10:28:07.768Z,100011.22
2023-07-28T10:30:52.928Z,100026.41
2023-07-28T10:33:30.123Z,100015.69
2023-07-28T10:36:00.383Z,100010.19
2023-07-28T10:38:37.335Z,100015.09
2023-07-28T10:41:09.968Z,100019.63
2023-07-28T10:43:40.681Z,100022.34
2023-07-28T10:46:11.621Z,100015.88
2023-07-28T10:48:44.771Z,100008.75
2023-07-28T10:51:13.816Z,99998.22
2023-07-28T10:53:42.014Z,100007.63
2023-07-28T10:56:12.788Z,100024.75
2023-07-28T10:58:42.573Z,100009.19
2023-07-28T11:01:12.528Z,100003.13
2023-07-28T11:03:42.523Z,100001.53
2023-07-28T11:06:10.690Z,100007.78
2023-07-28T11:08:38.888Z,100010.25
2023-07-28T11:11:08.307Z,100010.09
2023-07-28T11:13:41.460Z,99999.50
2023-07-28T11:16:12.240Z,100009.72
2023-07-28T11:18:45.236Z,100014.56
2023-07-28T11:21:16.469Z,99997.13
2023-07-28T11:23:48.175Z,99996.97
2023-07-28T11:26:18.437Z,100014.66
2023-07-28T11:28:48.563Z,100012.25
2023-07-28T11:31:18.273Z,100008.44
2023-07-28T11:33:46.628Z,99999.91
2023-07-28T11:36:24.555Z,100008.69
2023-07-28T11:38:53.817Z,100011.00
2023-07-28T11:41:23.924Z,100005.38
2023-07-28T11:43:53.248Z,100010.53
2023-07-28T11:46:40.317Z,100014.94
2023-07-28T11:49:12.463Z,100010.16
2023-07-28T11:51:44.525Z,100019.53
2023-07-28T11:54:16.307Z,100018.44
2023-07-28T11:56:45.539Z,100005.19
2023-07-28T11:59:14.050Z,100004.50
2023-07-28T12:07:12.751Z,99991.31
2023-07-28T12:10:03.449Z,99995.13
2023-07-28T12:20:39.939Z,99950.84
2023-07-28T12:25:40.917Z,99975.28
2023-07-28T12:28:18.948Z,99974.03
2023-07-28T12:30:50.332Z,99971.47
2023-07-28T12:33:22.442Z,99975.59
2023-07-28T12:35:51.775Z,99968.03
2023-07-28T12:48:48.208Z,99972.41
2023-07-28T12:51:30.758Z,99976.22
2023-07-28T12:53:59.361Z,99972.63
2023-07-28T13:01:35.721Z,99964.41
2023-07-28T13:04:05.853Z,99976.38
2023-07-28T13:06:34.278Z,99969.94
2023-07-28T13:14:09.598Z,99966.19
2023-07-28T13:16:39.220Z,99962.38
2023-07-28T13:19:09.068Z,99963.69
2023-07-28T13:21:37.640Z,99967.84
2023-07-28T13:24:08.367Z,99961.50
2023-07-28T13:26:37.975Z,99953.13
2023-07-28T13:29:08.346Z,99950.34
2023-07-28T13:31:36.999Z,99960.03
2023-07-28T13:34:05.579Z,99943.84
2023-07-28T13:36:35.242Z,99944.59
2023-07-28T13:39:03.404Z,99946.13
2023-07-28T13:41:31.746Z,99945.53
2023-07-28T13:44:03.112Z,99947.06
2023-07-28T13:46:31.665Z,99936.50
2023-07-28T13:49:07.952Z,99943.59
2023-07-28T13:57:01.193Z,99933.41
2023-07-28T14:00:12.409Z,99940.28
2023-07-28T14:05:43.700Z,99928.03
2023-07-28T14:07:02.926Z,99935.44
2023-07-28T14:09:31.133Z,99927.66
2023-07-28T14:11:59.312Z,99945.25
2023-07-28T14:14:27.740Z,99932.44
2023-07-28T14:16:56.100Z,99933.94
2023-07-28T14:19:24.503Z,99944.06
2023-07-28T14:21:52.742Z,99928.94
2023-07-28T14:24:22.713Z,99933.13
2023-07-28T14:26:50.970Z,99936.13
2023-07-28T14:29:19.240Z,99931.56
2023-07-28T14:31:47.739Z,99931.75
2023-07-28T14:34:15.878Z,99916.66
2023-07-28T14:36:44.394Z,99932.84
2023-07-28T14:39:12.649Z,99921.75
2023-07-28T14:41:42.384Z,99913.59
2023-07-28T14:44:10.698Z,99932.44
2023-07-28T14:46:38.838Z,99907.53
2023-07-28T14:49:06.982Z,99905.81
2023-07-28T14:51:35.716Z,99917.47
2023-07-28T14:54:12.424Z,99901.72
2023-07-28T14:56:42.296Z,99910.47
2023-07-28T14:59:11.491Z,99915.28
2023-07-28T15:01:40.856Z,99910.00
2023-07-28T15:04:09.015Z,99902.19
2023-07-28T15:06:37.898Z,99903.44
2023-07-28T15:09:06.238Z,99904.88
2023-07-28T15:11:34.951Z,99882.88
2023-07-28T15:14:05.733Z,99883.97
2023-07-28T15:16:34.111Z,99895.81
2023-07-28T15:19:02.693Z,99885.94
2023-07-28T15:21:30.926Z,99885.44
2023-07-28T15:24:00.184Z,99875.22
2023-07-28T15:26:28.714Z,99878.22
2023-07-28T15:28:58.996Z,99858.16
2023-07-28T15:31:32.068Z,99871.31
2023-07-28T15:34:00.299Z,99867.56
2023-07-28T15:36:29.583Z,99863.31
2023-07-28T15:38:57.858Z,99852.16
2023-07-28T15:42:20.540Z,99865.06
2023-07-28T15:44:50.799Z,99851.06
2023-07-28T15:47:21.136Z,99850.41
2023-07-28T15:49:51.862Z,99873.34
2023-07-28T15:52:28.080Z,99871.88
2023-07-28T15:54:56.718Z,99859.72
2023-07-28T15:57:27.799Z,99869.47
2023-07-28T15:59:55.963Z,99875.03
2023-07-28T16:02:25.843Z,99878.44
2023-07-28T16:04:54.204Z,99881.56
2023-07-28T16:07:23.936Z,99880.22
2023-07-28T16:09:52.475Z,99880.16
2023-07-28T16:12:20.772Z,99873.19
2023-07-28T16:14:49.013Z,99886.06
2023-07-28T16:17:17.413Z,99884.56
2023-07-28T16:19:48.238Z,99887.28
2023-07-28T16:22:18.860Z,99899.41
2023-07-28T16:24:48.035Z,99902.25
2023-07-28T16:27:19.299Z,99903.13
2023-07-28T16:29:47.470Z,99903.72
2023-07-28T16:32:16.791Z,99901.78
2023-07-28T16:34:46.717Z,99895.34
2023-07-28T16:37:15.969Z,99898.44
2023-07-28T16:39:46.941Z,99909.09
2023-07-28T16:42:15.472Z,99904.59
2023-07-28T16:44:44.013Z,99910.31
2023-07-28T16:47:12.678Z,99909.13
2023-07-28T16:49:46.019Z,99910.59
2023-07-28T16:52:17.294Z,99897.94
2023-07-28T16:54:45.630Z,99918.19
2023-07-28T16:57:15.331Z,99929.06
2023-07-28T16:59:43.745Z,99936.41
2023-07-28T17:02:12.449Z,99939.13
2023-07-28T17:04:40.980Z,99940.91
2023-07-28T17:07:09.199Z,99938.66
2023-07-28T17:09:42.013Z,99951.88
2023-07-28T17:12:10.853Z,99936.81
2023-07-28T17:14:39.228Z,99948.88
2023-07-28T17:17:07.964Z,99957.53
2023-07-28T17:19:36.344Z,99957.69
2023-07-28T17:22:05.286Z,99958.06
2023-07-28T17:24:34.108Z,99969.56
2023-07-28T17:27:04.278Z,99962.63
2023-07-28T17:29:35.822Z,99960.84
2023-07-28T17:32:04.547Z,99958.97
2023-07-28T17:34:32.937Z,99951.56
2023-07-28T17:37:01.176Z,99962.16
2023-07-28T17:39:30.068Z,99961.81
2023-07-28T17:41:58.375Z,99955.56
2023-07-28T17:44:28.259Z,99953.75
2023-07-28T17:46:57.424Z,99955.88
2023-07-28T17:49:28.415Z,99953.06
2023-07-28T17:51:58.960Z,99949.00
2023-07-28T17:54:33.491Z,99964.72
2023-07-28T17:57:01.792Z,99963.41
2023-07-28T17:59:32.086Z,99958.91
2023-07-28T18:02:00.515Z,99951.22
2023-07-28T18:04:29.350Z,99950.63
2023-07-28T18:06:59.744Z,99952.59
2023-07-28T18:09:28.475Z,99952.47
2023-07-28T18:11:57.132Z,99954.91
2023-07-28T18:14:27.317Z,99949.91
2023-07-28T18:16:57.324Z,99962.91
2023-07-28T18:19:28.367Z,99957.81
2023-07-28T18:21:57.045Z,99943.25
2023-07-28T18:24:27.023Z,99940.28
2023-07-28T18:26:55.954Z,99942.56
2023-07-28T18:29:27.493Z,99939.88
2023-07-28T18:31:58.434Z,99951.34
2023-07-28T18:34:27.944Z,99960.13
2023-07-28T18:36:58.393Z,99957.25
2023-07-28T18:39:28.403Z,99958.47
2023-07-28T18:41:57.590Z,99969.31
2023-07-28T18:44:26.680Z,99967.69
2023-07-28T18:46:56.962Z,99976.88
2023-07-28T18:49:30.486Z,99973.84
2023-07-28T18:52:01.925Z,99953.81
2023-07-28T18:54:30.531Z,99982.31
2023-07-28T18:57:00.693Z,99975.84
2023-07-28T18:59:30.249Z,99973.72
2023-07-28T19:02:01.343Z,99973.44
2023-07-28T19:04:31.690Z,99975.38
2023-07-28T19:07:01.046Z,99973.09
2023-07-28T19:09:30.908Z,99978.22
2023-07-28T19:12:00.239Z,99975.81
2023-07-28T19:14:31.255Z,99970.38
2023-07-28T19:17:03.819Z,99972.69
2023-07-28T19:19:33.283Z,99982.16
2023-07-28T19:25:14.762Z,99980.94
2023-07-28T19:27:46.903Z,99983.03
2023-07-28T19:35:13.947Z,100014.19
2023-07-28T19:37:45.326Z,100000.47
2023-07-28T19:40:28.652Z,100003.66
2023-07-28T19:43:17.648Z,99997.78
2023-07-28T19:45:47.765Z,100015.84
2023-07-28T19:48:17.675Z,100003.94
2023-07-28T19:50:52.818Z,100010.84
2023-07-28T19:53:23.665Z,99988.97
2023-07-28T19:58:59.827Z,100013.97
2023-07-28T20:01:31.686Z,100008.25
2023-07-28T20:04:01.512Z,100001.47
2023-07-28T20:06:30.418Z,100011.22
2023-07-28T20:09:06.084Z,100007.16
2023-07-28T20:11:43.787Z,100009.38
2023-07-28T20:14:20.834Z,100024.88
2023-07-28T20:17:13.954Z,100015.22
2023-07-28T20:19:43.350Z,100011.91
2023-07-28T20:22:37.343Z,100022.00
2023-07-28T20:25:10.409Z,100035.22
2023-07-28T20:27:45.676Z,100022.09
2023-07-28T20:30:37.706Z,100019.41
2023-07-28T20:33:09.352Z,100013.84
2023-07-28T20:35:42.390Z,100008.84
2023-07-28T20:38:40.238Z,100006.41
2023-07-28T20:41:23.365Z,100014.81
2023-07-28T20:44:33.629Z,100011.59
2023-07-28T20:48:36.024Z,100012.47
2023-07-28T20:51:07.836Z,100026.44
2023-07-28T20:54:24.619Z,100030.78
2023-07-28T20:56:54.962Z,100013.63
2023-07-28T21:00:12.740Z,100000.22
2023-07-28T21:02:41.058Z,100003.50
2023-07-28T21:05:09.876Z,100016.69
2023-07-28T21:07:44.665Z,100006.59
2023-07-28T21:10:14.487Z,100013.66
2023-07-28T21:12:44.813Z,100017.25
2023-07-28T21:15:16.073Z,100014.22
2023-07-28T21:17:44.579Z,100017.06
2023-07-28T21:20:15.268Z,100022.16
2023-07-28T21:22:46.389Z,100013.72
2023-07-28T21:25:14.915Z,100012.25
2023-07-28T21:27:44.679Z,99996.25
2023-07-28T21:30:13.144Z,100006.31
2023-07-28T21:32:41.514Z,100001.78
2023-07-28T21:35:10.991Z,99997.56
2023-07-28T21:37:43.139Z,99995.31
2023-07-28T21:40:16.754Z,100002.66
2023-07-28T21:42:46.726Z,100006.88
2023-07-28T21:45:15.571Z,100001.16
2023-07-28T21:47:45.222Z,100003.22
2023-07-28T21:50:16.717Z,99999.25
2023-07-28T21:52:45.645Z,100015.59
2023-07-28T21:55:14.892Z,100009.19
2023-07-28T21:57:47.366Z,100010.22
2023-07-28T22:00:17.148Z,100017.97
2023-07-28T22:02:47.671Z,100021.13
2023-07-28T22:05:20.710Z,100011.19
2023-07-28T22:07:52.388Z,100010.09
2023-07-28T22:10:22.856Z,100010.84
2023-07-28T22:12:51.295Z,99992.19
2023-07-28T22:15:21.177Z,100005.69
2023-07-28T22:17:49.420Z,100006.78
2023-07-28T22:20:17.621Z,100003.22
2023-07-28T22:22:46.278Z,100010.84
2023-07-28T22:25:14.739Z,100009.69
2023-07-28T22:27:43.097Z,100007.41
2023-07-28T22:30:13.063Z,100000.16
2023-07-28T22:32:42.614Z,99996.28
2023-07-28T22:35:10.950Z,99995.53
2023-07-28T22:37:39.383Z,100002.88
2023-07-28T22:42:38.202Z,100013.81
2023-07-28T22:45:07.453Z,100013.38
2023-07-28T22:47:36.150Z,100026.53
2023-07-28T22:50:07.392Z,100021.13
2023-07-28T22:52:35.689Z,100015.09
2023-07-28T22:55:15.319Z,100004.72
2023-07-28T22:58:01.702Z,99999.34
2023-07-28T23:00:49.465Z,100008.16
2023-07-28T23:03:19.340Z,100026.47
2023-07-28T23:05:49.030Z,100020.84
2023-07-28T23:08:17.484Z,100031.31
2023-07-28T23:10:54.534Z,100007.88
2023-07-28T23:13:23.699Z,100023.44
2023-07-28T23:15:53.282Z,100016.84
2023-07-28T23:18:21.584Z,100023.31
2023-07-28T23:20:52.341Z,100021.38
2023-07-28T23:23:20.469Z,100009.81
2023-07-28T23:25:48.819Z,100004.41
2023-07-28T23:28:17.195Z,100028.41
2023-07-28T23:30:46.652Z,100003.88
2023-07-28T23:33:25.004Z,100013.50
2023-07-28T23:36:12.315Z,100010.06
2023-07-28T23:38:47.804Z,100023.56
2023-07-28T23:41:16.618Z,100012.44
2023-07-28T23:43:45.107Z,100011.34
2023-07-28T23:46:15.518Z,100012.44
2023-07-28T23:48:43.761Z,100001.63
2023-07-28T23:51:14.515Z,99997.41
2023-07-28T23:53:43.834Z,100001.81
2023-07-28T23:56:12.385Z,100001.94
2023-07-28T23:58:40.525Z,100007.34
